Date,TemperatureHighF,TemperatureAvgF,TemperatureLowF,DewpointHighF,DewpointAvgF,DewpointLowF,HumidityHigh,HumidityAvg,HumidityLow,PressureMaxIn,PressureMinIn,WindSpeedMaxMPH,WindSpeedAvgMPH,GustSpeedMaxMPH,PrecipitationSumIn
2013-1-1,13,7,-2,7,1,-5,86,76,64,0.00,40.00,9,4,12,0.00
2013-1-2,29,15,3,29,11,0,99,86,78,0.00,40.00,10,5,14,0.00
2013-1-3,29,16,9,29,13,7,99,85,78,0.00,40.00,16,10,24,0.00
2013-1-4,30,20,10,23,16,8,96,87,72,0.00,40.00,14,6,22,0.00
2013-1-5,36,24,13,34,22,12,99,93,82,0.00,40.00,16,7,26,0.00
2013-1-6,24,17,13,17,13,9,96,84,66,0.00,40.00,16,7,26,0.00
2013-1-7,40,29,14,31,24,13,96,82,63,0.00,40.00,16,7,21,0.00
2013-1-8,40,31,22,34,29,22,99,91,80,0.00,40.00,16,7,24,0.00
2013-1-9,42,33,29,33,30,28,99,88,64,0.00,40.00,17,8,22,0.00
2013-1-10,40,33,27,36,30,25,99,90,54,0.00,40.00,13,6,26,0.22
2013-1-11,47,40,35,46,40,35,99,99,94,0.00,40.00,16,6,24,0.06
2013-1-12,48,25,15,45,19,7,98,77,68,0.00,40.00,27,14,39,0.00
2013-1-13,15,11,7,8,5,1,85,76,70,0.00,40.00,18,10,25,0.00
2013-1-14,26,16,6,15,10,4,91,79,59,0.00,40.00,11,4,16,0.00
2013-1-15,32,22,13,17,14,11,92,73,49,0.00,40.00,13,6,17,0.00
2013-1-16,43,30,20,39,26,13,96,81,72,0.00,40.00,16,11,27,0.06
2013-1-17,30,23,14,24,16,9,92,75,52,0.00,40.00,12,5,19,0.00
2013-1-18,51,37,24,36,31,22,93,78,53,0.00,40.00,22,11,35,0.00
2013-1-19,50,36,13,36,29,6,98,78,53,0.00,40.00,29,12,46,0.00
2013-1-20,13,10,6,9,5,1,85,80,73,0.00,40.00,20,3,28,0.01
2013-1-21,10,3,-5,7,-3,-11,89,76,65,0.00,40.00,20,14,30,0.00
2013-1-22,12,6,-1,3,-1,-4,88,74,62,0.00,40.00,12,5,19,0.00
2013-1-23,27,16,4,17,8,-4,78,70,59,0.00,40.00,21,10,35,0.00
2013-1-24,19,9,1,8,-2,-7,69,60,46,0.00,40.00,11,7,19,0.00
2013-1-25,31,20,9,22,12,4,78,68,54,0.00,40.00,22,10,37,0.00
2013-1-26,29,18,5,17,9,2,90,69,50,0.00,40.00,14,6,23,0.00
2013-1-27,34,31,28,34,27,17,99,86,60,0.00,40.00,14,7,23,1.25
2013-1-28,42,35,32,42,35,32,99,99,99,0.00,40.00,9,4,16,0.07
2013-1-29,52,39,34,52,39,33,99,99,97,0.00,40.00,12,6,27,0.32
2013-1-30,34,23,14,33,21,9,99,93,80,0.00,40.00,24,14,41,16.80
2013-1-31,14,3,-3,9,-4,-9,82,75,70,0.00,40.00,24,16,34,0.00
2013-2-1,15,2,-8,13,-4,-13,92,77,69,0.00,40.00,17,8,24,0.06
2013-2-2,21,16,13,18,12,7,98,85,74,0.00,40.00,12,5,21,0.03
2013-2-3,24,19,13,22,15,8,98,83,67,0.00,40.00,21,8,32,0.01
2013-2-4,25,20,15,21,16,11,96,83,65,0.00,40.00,12,5,19,0.00
2013-2-5,38,27,17,32,24,14,97,88,71,0.00,40.00,21,9,33,0.19
2013-2-6,39,28,15,36,26,15,99,93,80,0.00,40.00,12,6,18,0.14
2013-2-7,36,33,28,36,33,27,99,98,93,0.00,40.00,12,5,22,1.14
2013-2-8,31,29,27,27,26,25,98,90,78,0.00,40.00,16,6,22,0.00
2013-2-9,31,29,27,30,28,26,98,96,94,0.00,40.00,21,11,27,0.00
2013-2-10,43,36,30,43,36,30,99,98,91,0.00,40.00,27,12,40,2.11
2013-2-11,33,28,24,31,24,20,98,83,75,0.00,40.00,35,21,50,0.49
2013-2-12,40,30,23,31,25,19,97,82,63,0.00,40.00,17,6,23,0.00
2013-2-13,43,34,26,36,31,26,99,88,72,0.00,40.00,11,5,17,0.00
2013-2-14,40,34,24,35,30,13,99,85,62,0.00,40.00,21,12,34,0.34
2013-2-15,26,21,16,17,12,8,85,69,57,0.00,40.00,17,8,25,0.00
2013-2-16,27,18,12,19,14,8,94,83,69,0.00,40.00,9,4,15,0.00
2013-2-17,37,27,16,26,21,15,95,79,59,0.00,40.00,20,10,29,0.00
2013-2-18,43,30,12,36,26,5,96,85,69,0.00,40.00,28,12,39,0.04
2013-2-19,17,8,2,7,2,-3,88,76,63,0.00,40.00,27,17,37,0.01
2013-2-20,25,12,1,14,5,-3,86,74,51,0.00,40.00,10,5,16,0.00
2013-2-21,26,20,14,24,17,11,99,87,79,0.00,40.00,19,9,29,0.49
2013-2-22,31,26,17,29,25,15,99,95,86,0.00,40.00,16,7,21,1.03
2013-2-23,27,19,11,21,16,10,98,90,76,0.00,40.00,10,5,14,0.00
2013-2-24,36,21,5,25,17,5,99,87,60,0.00,40.00,7,2,10,0.00
2013-2-25,41,31,23,31,27,22,99,87,61,0.00,40.00,7,2,10,0.00
2013-2-26,32,31,29,32,30,27,99,96,87,0.00,40.00,16,8,26,4.37
2013-2-27,33,31,29,33,31,29,99,99,99,0.00,40.00,12,6,19,2.49
2013-2-28,36,30,27,31,28,26,99,89,74,0.00,40.00,11,7,21,0.07
2013-3-1,32,26,19,26,22,16,95,82,58,0.00,40.00,12,6,18,0.00
2013-3-2,34,19,9,20,14,9,99,83,49,0.00,40.00,9,3,11,0.00
2013-3-3,33,21,7,22,15,7,99,80,50,0.00,40.00,12,4,17,0.00
2013-3-4,33,28,23,29,25,19,99,91,76,0.00,40.00,17,9,27,0.23
2013-3-5,35,29,26,31,27,25,99,93,77,0.00,40.00,14,6,23,1.88
2013-3-6,33,25,13,25,21,13,98,85,65,0.00,40.00,14,6,22,0.00
2013-3-7,31,18,5,25,16,4,99,93,74,0.00,40.00,9,4,14,0.00
2013-3-8,43,31,20,34,28,20,99,91,69,0.00,40.00,14,7,24,0.23
2013-3-9,39,36,34,38,36,34,99,99,98,0.00,40.00,17,9,27,3.74
2013-3-10,39,36,33,39,36,33,99,99,99,0.00,40.00,16,6,26,3.59
2013-3-11,34,30,25,34,29,21,99,95,82,0.00,40.00,18,10,27,1.27
2013-3-12,32,26,22,31,23,19,96,87,70,0.00,40.00,21,12,32,0.36
2013-3-13,32,23,17,21,18,15,95,80,51,0.00,40.00,14,7,22,0.00
2013-3-14,45,33,21,34,28,20,98,83,62,0.00,40.00,19,5,24,0.00
2013-3-15,44,35,29,39,34,29,99,94,82,0.00,40.00,12,4,19,0.00
2013-3-16,35,31,25,35,28,21,99,88,70,0.00,40.00,16,7,26,0.00
2013-3-17,37,28,20,30,22,15,90,77,62,0.00,40.00,16,9,26,0.00
2013-3-18,32,26,17,32,24,11,99,90,76,0.00,40.00,29,14,40,1.67
2013-3-19,27,20,12,20,12,7,81,72,58,0.00,40.00,21,15,30,0.00
2013-3-20,24,17,11,10,8,5,79,66,55,0.00,40.00,26,16,36,0.00
2013-3-21,31,20,10,17,12,7,87,71,51,0.00,40.00,9,4,17,0.00
2013-3-22,38,26,16,26,19,15,94,75,48,0.00,40.00,7,2,9,0.00
2013-3-23,41,32,24,28,24,22,96,74,48,0.00,40.00,7,4,14,0.00
2013-3-24,33,31,29,32,30,28,99,95,83,0.00,40.00,11,6,19,3.31
2013-3-25,38,31,27,29,26,23,99,83,63,0.00,40.00,13,8,22,0.00
2013-3-26,39,32,24,29,26,24,98,80,57,0.00,40.00,12,6,17,0.00
2013-3-27,45,35,27,34,28,25,99,77,51,0.00,40.00,7,2,11,0.00
2013-3-28,51,38,27,35,31,27,99,79,50,0.00,40.00,7,3,11,0.00
2013-3-29,58,44,31,39,35,30,99,74,47,0.00,40.00,9,4,17,0.00
2013-3-30,49,44,38,49,42,-100,99,95,80,0.00,40.00,16,6,25,0.26
2013-3-31,47,38,31,42,32,23,99,81,51,0.00,40.00,23,11,33,0.00
2013-4-1,37,30,23,24,21,18,88,69,48,0.00,40.00,17,10,25,0.00
2013-4-2,41,32,22,27,22,18,96,68,43,0.00,40.00,17,6,22,0.00
2013-4-3,46,35,23,30,23,18,99,66,37,0.00,40.00,12,4,18,0.00
2013-4-4,58,44,32,42,34,24,86,66,44,0.00,40.00,17,8,24,0.00
2013-4-5,52,43,32,36,32,29,96,65,42,0.00,40.00,16,7,26,0.00
2013-4-6,62,51,42,55,42,31,96,72,58,0.00,40.00,25,14,32,0.00
2013-4-7,62,49,37,47,42,37,98,79,50,0.00,40.00,15,6,22,0.00
2013-4-8,74,60,47,59,52,47,99,79,46,0.00,40.00,15,6,21,0.61
2013-4-9,52,46,40,51,46,40,99,99,95,0.00,40.00,17,10,27,4.42
2013-4-10,40,37,35,40,37,35,99,99,99,0.00,40.00,24,10,32,1.69
2013-4-11,46,40,37,46,40,37,99,99,96,0.00,40.00,18,7,24,1.06
2013-4-12,37,36,33,37,33,31,99,91,81,0.00,40.00,20,12,26,0.07
2013-4-13,46,38,31,36,32,28,94,79,61,0.00,40.00,18,9,26,0.18
2013-4-14,68,48,37,59,46,35,99,93,67,0.00,40.00,19,10,29,1.92
2013-4-15,51,43,38,50,38,32,97,81,65,0.00,40.00,18,10,30,0.00
2013-4-16,51,42,33,38,34,31,97,76,55,0.00,40.00,11,6,18,0.00
2013-4-17,45,43,39,44,41,37,99,93,74,0.00,40.00,24,9,35,4.16
2013-4-18,46,40,34,46,40,33,99,99,95,0.00,40.00,19,10,34,1.58
2013-4-19,37,34,32,33,30,27,96,85,71,0.00,40.00,26,18,36,0.94
2013-4-20,50,38,28,30,25,18,97,63,28,0.00,40.00,9,5,14,0.00
2013-4-21,63,48,39,48,39,29,92,72,57,0.00,40.00,22,13,34,0.39
2013-4-22,64,57,45,53,50,44,99,77,57,0.00,40.00,19,10,32,0.76
2013-4-23,45,38,35,45,34,28,99,86,64,0.00,40.00,16,9,28,0.00
2013-4-24,53,41,29,43,31,28,96,72,38,0.00,40.00,21,10,36,0.10
2013-4-25,58,44,32,39,30,22,96,62,31,0.00,40.00,20,9,25,0.00
2013-4-26,69,57,43,54,46,35,96,68,49,0.00,40.00,21,13,32,0.00
2013-4-27,68,56,44,53,48,44,99,78,50,0.00,40.00,14,5,20,0.00
2013-4-28,75,60,43,55,49,43,99,70,40,0.00,40.00,13,5,17,0.00
2013-4-29,79,64,54,62,58,54,99,81,51,0.00,40.00,13,5,19,0.13
2013-4-30,84,73,59,65,60,48,98,66,44,0.00,40.00,24,11,35,0.01
2013-5-1,62,53,42,53,48,40,98,82,65,0.00,40.00,22,12,37,0.00
2013-5-2,41,36,33,40,36,33,99,99,96,0.00,40.00,22,11,35,8.15
2013-5-3,37,35,33,37,35,33,99,99,99,0.00,40.00,14,8,23,9.66
2013-5-4,67,52,37,62,51,37,99,94,78,0.00,40.00,14,7,20,1.49
2013-5-5,72,58,47,60,53,47,99,85,56,0.00,40.00,12,5,19,0.00
2013-5-6,77,63,51,58,52,48,99,72,38,0.00,40.00,9,3,17,0.00
2013-5-7,81,68,54,56,51,45,95,60,31,0.00,40.00,7,2,11,0.00
2013-5-8,79,65,53,63,56,51,99,77,38,0.00,40.00,17,4,25,0.21
2013-5-9,67,61,55,66,61,55,99,98,88,0.00,40.00,14,5,27,1.35
2013-5-10,67,55,48,55,49,-100,99,86,59,0.00,40.00,13,6,24,0.08
2013-5-11,55,51,45,52,34,-100,98,57,28,0.00,40.00,25,13,39,0.00
2013-5-12,59,48,36,33,29,26,80,49,30,0.00,40.00,14,7,24,0.00
2013-5-13,72,59,38,51,41,34,94,56,32,0.00,40.00,17,7,27,0.00
2013-5-14,96,77,57,63,58,51,95,57,26,0.00,40.00,24,10,36,0.00
2013-5-15,82,72,63,55,52,45,69,49,35,0.00,40.00,11,6,21,0.00
2013-5-16,85,68,56,61,36,-100,96,57,32,0.00,40.00,11,3,19,0.15
2013-5-17,81,71,64,67,58,-100,98,73,54,0.00,40.00,16,6,21,0.00
2013-5-18,84,73,61,70,65,60,98,76,55,0.00,40.00,17,7,26,0.00
2013-5-19,85,74,63,75,69,63,99,87,59,0.00,40.00,24,11,47,1.39
2013-5-20,79,69,60,68,63,60,99,84,59,0.00,40.00,21,10,37,0.14
2013-5-21,70,64,60,62,60,57,99,85,66,0.00,40.00,17,8,23,0.00
2013-5-22,66,60,56,62,58,54,99,94,81,0.00,40.00,16,6,21,0.15
2013-5-23,69,59,53,57,52,45,99,78,48,0.00,40.00,13,7,22,0.00
2013-5-24,69,58,47,54,47,42,95,70,39,0.00,40.00,15,6,21,0.03
2013-5-25,61,53,49,53,51,48,99,93,63,0.00,40.00,17,8,29,1.38
2013-5-26,56,52,48,55,52,48,99,99,96,0.00,40.00,26,8,47,1.74
2013-5-27,66,60,55,66,60,55,99,99,98,0.00,40.00,14,6,22,0.04
2013-5-28,78,68,59,71,65,59,99,92,73,0.00,40.00,12,5,19,1.71
2013-5-29,80,68,61,75,66,60,99,94,78,0.00,40.00,29,8,49,3.58
2013-5-30,77,70,63,71,67,63,99,90,73,0.00,40.00,25,14,35,0.00
2013-5-31,76,69,61,68,64,61,99,87,66,0.00,40.00,23,12,34,0.00
2013-6-1,68,65,59,67,61,55,98,87,71,0.00,40.00,15,9,26,0.17
2013-6-2,66,57,50,59,49,45,95,75,48,0.00,40.00,17,6,24,0.00
2013-6-3,69,57,48,58,50,47,99,81,47,0.00,40.00,6,1,8,0.00
2013-6-4,61,58,55,60,57,55,99,96,89,0.00,40.00,11,6,19,0.51
2013-6-5,67,61,56,65,60,56,99,97,85,0.00,40.00,8,3,11,0.14
2013-6-6,70,62,57,64,58,56,99,89,65,0.00,40.00,11,4,18,0.06
2013-6-7,68,61,56,60,57,55,99,89,64,0.00,40.00,7,2,11,0.01
2013-6-8,73,65,53,63,57,53,99,78,55,0.00,40.00,10,4,19,0.06
2013-6-9,75,68,63,68,63,59,98,85,74,0.00,40.00,16,8,26,0.00
2013-6-10,80,68,61,67,64,61,99,89,61,0.00,40.00,6,2,11,0.08
2013-6-11,87,74,62,73,68,62,99,82,52,0.00,40.00,10,4,16,0.12
2013-6-12,87,77,68,79,74,68,99,91,74,0.00,40.00,24,6,38,3.92
2013-6-13,83,72,63,68,62,57,99,73,43,0.00,40.00,10,4,19,0.00
2013-6-14,77,69,61,66,62,60,98,80,60,0.00,40.00,16,6,24,0.12
2013-6-15,79,72,65,75,70,65,99,93,79,0.00,40.00,17,7,32,0.46
2013-6-16,86,76,65,71,60,51,99,64,31,0.00,40.00,11,4,16,0.00
2013-6-17,88,77,62,64,60,56,96,60,35,0.00,40.00,13,4,23,0.00
2013-6-18,82,72,64,64,61,59,96,70,47,0.00,40.00,12,5,19,0.00
2013-6-19,74,66,62,62,60,58,92,82,62,0.00,40.00,9,6,14,0.00
2013-6-20,89,86,81,69,68,66,59,54,49,0.00,40.00,19,14,26,0.00
2013-6-22,92,86,72,79,77,71,96,75,63,0.00,40.00,21,12,31,0.00
2013-6-23,82,76,67,78,72,66,99,88,69,0.00,40.00,19,8,26,0.23
2013-6-24,74,70,66,73,70,65,99,98,95,0.00,40.00,24,7,35,0.55
2013-6-25,89,76,67,79,73,67,99,91,65,0.00,40.00,15,6,22,0.03
2013-6-26,88,77,67,82,74,67,99,90,77,0.00,40.00,9,4,21,2.54
2013-6-27,87,78,67,74,69,62,98,77,45,0.00,40.00,17,7,26,0.00
2013-6-28,81,75,69,67,64,62,92,68,54,0.00,40.00,21,11,34,0.15
2013-6-29,73,67,64,69,65,63,99,93,79,0.00,40.00,15,7,25,0.67
2013-6-30,77,69,60,63,58,55,95,72,47,0.00,40.00,12,6,21,0.16
2013-7-1,81,71,59,64,58,52,96,67,38,0.00,40.00,14,4,22,0.28
2013-7-2,86,73,61,66,62,57,98,73,39,0.00,40.00,7,3,12,0.28
2013-7-3,83,72,62,64,60,55,94,67,40,0.00,40.00,7,3,11,0.00
2013-7-4,86,74,60,65,62,59,97,68,43,0.00,40.00,12,5,19,0.04
2013-7-5,87,76,63,68,65,62,98,70,46,0.00,40.00,18,7,24,0.18
2013-7-6,91,78,66,73,69,66,98,76,48,0.00,40.00,14,7,20,0.55
2013-7-7,92,81,69,76,72,69,98,75,50,0.00,40.00,16,8,27,0.36
2013-7-8,96,84,77,80,76,72,96,78,49,0.00,40.00,9,4,17,0.09
2013-7-9,90,81,74,82,78,74,99,90,70,0.00,40.00,16,6,22,0.65
2013-7-10,82,75,69,78,63,-100,98,70,46,0.00,40.00,12,5,19,0.00
2013-7-11,84,75,62,67,63,59,99,70,44,0.00,40.00,9,3,15,0.00
2013-7-12,85,73,62,66,62,59,98,72,44,0.00,40.00,15,7,22,0.00
2013-7-13,73,68,64,70,66,62,98,92,85,0.00,40.00,9,4,16,0.25
2013-7-14,87,76,63,72,68,63,99,77,50,0.00,40.00,11,4,19,0.00
2013-7-15,91,79,67,80,74,66,99,86,63,0.00,40.00,7,3,12,0.04
2013-7-16,93,84,74,79,76,73,98,80,55,0.00,40.00,10,5,14,0.00
2013-7-17,97,86,74,79,76,72,98,75,46,0.00,40.00,7,3,12,0.00
2013-7-18,95,85,74,78,75,71,97,74,48,0.00,40.00,16,7,24,0.00
2013-7-19,93,82,75,77,73,67,89,75,51,0.00,40.00,14,8,21,0.00
2013-7-20,89,79,64,73,66,-100,98,69,46,0.00,40.00,9,4,13,0.00
2013-7-21,86,76,67,74,70,66,98,85,58,0.00,40.00,13,4,20,0.07
2013-7-22,92,74,64,78,70,64,99,88,57,0.00,40.00,17,6,35,2.85
2013-7-23,78,70,64,69,62,57,97,75,51,0.00,40.00,10,5,19,0.03
2013-7-24,78,69,57,63,60,57,99,75,49,0.00,40.00,6,2,9,0.00
2013-7-25,85,71,59,69,64,58,99,82,51,0.00,40.00,14,6,27,3.01
2013-7-26,75,69,63,70,62,56,99,80,53,0.00,40.00,20,10,29,0.48
2013-7-27,67,59,53,58,52,48,96,78,51,0.00,40.00,16,7,24,0.00
2013-7-28,71,62,53,56,54,51,93,76,55,0.00,40.00,12,6,16,0.00
2013-7-29,78,65,53,63,57,53,99,76,48,0.00,40.00,9,3,14,0.00
2013-7-30,69,67,64,68,65,62,98,94,88,0.00,40.00,7,4,12,0.00
2013-7-31,81,72,63,70,66,63,99,82,58,0.00,40.00,13,4,17,0.00
2013-8-1,84,72,63,72,64,56,98,80,46,0.00,40.00,14,3,20,0.10
2013-8-2,83,71,65,69,66,61,98,85,49,0.00,40.00,7,4,12,0.12
2013-8-3,79,70,60,65,59,55,98,72,45,0.00,40.00,8,3,13,0.00
2013-8-4,81,70,58,63,59,56,99,72,45,0.00,40.00,8,2,13,0.00
2013-8-5,80,69,62,76,68,61,99,94,83,0.00,40.00,13,5,18,0.45
2013-8-6,88,77,65,77,72,65,99,85,56,0.00,40.00,11,3,17,0.01
2013-8-7,78,73,67,73,67,63,98,83,65,0.00,40.00,11,5,17,0.01
2013-8-8,81,70,58,67,63,58,98,79,56,0.00,40.00,6,2,10,0.00
2013-8-9,80,72,64,69,64,58,97,77,49,0.00,40.00,9,4,14,0.00
2013-8-10,81,71,57,67,61,57,98,73,50,0.00,40.00,10,3,13,0.00
2013-9-11,67,67,67,67,66,66,98,98,98,0.00,40.00,1,1,3,0.00
2013-9-12,75,68,62,64,58,51,93,72,42,0.00,40.00,11,5,22,0.00
2013-9-13,71,60,50,50,49,48,98,71,44,0.00,40.00,5,4,9,0.00
2013-9-14,53,39,46,50,18,-100,99,76,90,0.00,40.00,11,4,16,0.00
2013-9-15,59,59,59,57,57,57,92,92,92,0.00,40.00,4,4,10,0.00
2013-9-16,67,56,51,57,54,51,99,93,61,0.00,40.00,6,4,9,0.00
2013-9-17,64,54,51,61,53,50,98,95,90,0.00,40.00,11,6,17,0.00
2013-9-30,76,62,49,57,52,48,97,72,42,0.00,40.00,17,8,27,0.00
2013-10-1,72,68,63,54,50,46,70,52,39,0.00,40.00,3,2,4,0.00
2013-10-2,83,71,52,65,53,41,99,57,29,0.00,40.00,12,5,22,0.00
2013-10-3,80,67,64,68,65,64,99,94,67,0.00,40.00,9,4,15,0.00
2013-10-4,67,66,64,66,65,64,99,98,96,0.00,40.00,9,5,14,0.61
2013-10-5,70,62,51,70,58,40,98,86,66,0.00,40.00,8,6,14,0.00
2013-10-6,48,46,45,47,44,42,98,90,84,0.00,40.00,6,4,8,0.00
2013-10-27,54,36,27,35,30,26,98,84,46,0.00,40.00,11,4,16,0.00
2013-10-28,45,35,38,39,15,-100,90,84,71,0.00,40.00,15,10,22,0.00
2013-10-29,58,54,47,46,44,42,84,67,60,0.00,40.00,10,6,18,0.00
2013-10-30,60,53,51,60,52,48,99,96,84,0.00,40.00,11,5,17,0.65
2013-10-31,59,49,42,59,49,40,99,98,90,0.00,40.00,15,10,18,0.00
2013-11-1,48,44,42,42,41,40,95,90,73,0.00,40.00,15,10,20,0.13
2013-11-2,52,44,35,38,28,-100,93,61,41,0.00,40.00,16,6,25,0.00
2013-11-15,58,44,28,40,35,28,98,73,50,0.00,40.00,9,5,12,0.00
2013-11-16,61,51,39,60,48,-100,99,95,92,0.00,40.00,17,10,34,3.11
2013-11-17,51,46,39,51,43,36,99,91,76,0.00,40.00,21,10,32,1.30
2013-11-18,42,36,28,36,29,26,97,76,54,0.00,40.00,22,10,30,0.00
2013-11-19,40,28,25,30,27,25,99,95,67,0.00,40.00,16,4,27,0.00
2013-11-20,38,37,36,38,37,34,99,98,90,0.00,40.00,17,10,27,0.24
2013-11-21,41,38,34,41,38,34,99,99,99,0.00,40.00,7,2,11,0.00
2013-11-22,29,24,18,25,18,13,94,77,62,0.00,40.00,9,3,14,0.00
2013-11-23,21,15,11,17,3,-100,82,71,57,0.00,40.00,14,10,29,0.00
2013-11-24,26,17,6,9,8,4,91,68,48,0.00,40.00,12,8,19,0.00
2013-11-25,35,30,25,29,27,22,98,88,78,0.00,40.00,16,9,23,0.00
2013-11-26,33,27,16,27,20,7,92,74,47,0.00,40.00,16,9,32,0.00
2013-11-27,24,19,11,13,11,8,83,70,54,0.00,40.00,7,5,12,0.00
2013-11-28,33,23,14,20,16,12,96,74,57,0.00,40.00,9,5,16,0.00
2013-11-29,32,15,10,23,13,9,99,94,68,0.00,40.00,13,2,21,0.00
2013-11-30,45,34,32,33,15,-100,91,66,63,0.00,40.00,9,6,14,0.00